sensor_id;sensor_type;location;lat;lon;timestamp;noise_LAeq;noise_LA_min;noise_LA_max;noise_LA01;noise_LA95
46393;Laerm;32099;53.588;10.176;2023-10-31T00:00:35;56.58;49.26;70.41;;
46393;Laerm;32099;53.588;10.176;2023-10-31T00:03:01;54.82;49.47;74.64;;
46393;Laerm;32099;53.588;10.176;2023-10-31T00:05:27;51.31;48.37;58.25;;
46393;Laerm;32099;53.588;10.176;2023-10-31T00:07:52;51.08;48.64;57.61;;
46393;Laerm;32099;53.588;10.176;2023-10-31T00:10:19;50.76;47.78;55.09;;
46393;Laerm;32099;53.588;10.176;2023-10-31T00:12:45;51.21;48.71;62.22;;
46393;Laerm;32099;53.588;10.176;2023-10-31T00:15:11;51.72;49.37;57.80;;
46393;Laerm;32099;53.588;10.176;2023-10-31T00:17:39;52.02;49.54;56.89;;
46393;Laerm;32099;53.588;10.176;2023-10-31T00:20:06;51.50;48.79;59.19;;
46393;Laerm;32099;53.588;10.176;2023-10-31T00:22:32;59.83;48.87;74.33;;
46393;Laerm;32099;53.588;10.176;2023-10-31T00:24:58;51.94;49.53;60.14;;
46393;Laerm;32099;53.588;10.176;2023-10-31T00:27:24;51.30;48.79;63.80;;
46393;Laerm;32099;53.588;10.176;2023-10-31T00:29:50;52.09;49.01;59.03;;
46393;Laerm;32099;53.588;10.176;2023-10-31T00:32:16;51.43;48.61;60.92;;
46393;Laerm;32099;53.588;10.176;2023-10-31T00:34:44;51.16;48.46;59.94;;
46393;Laerm;32099;53.588;10.176;2023-10-31T00:37:10;50.22;47.25;55.60;;
46393;Laerm;32099;53.588;10.176;2023-10-31T00:39:36;51.83;48.15;65.03;;
46393;Laerm;32099;53.588;10.176;2023-10-31T00:42:02;58.57;49.63;74.27;;
46393;Laerm;32099;53.588;10.176;2023-10-31T00:44:28;51.63;49.48;56.56;;
46393;Laerm;32099;53.588;10.176;2023-10-31T00:46:54;51.95;49.03;67.98;;
46393;Laerm;32099;53.588;10.176;2023-10-31T00:49:20;50.35;47.48;55.82;;
46393;Laerm;32099;53.588;10.176;2023-10-31T00:51:48;60.09;49.00;78.59;;
46393;Laerm;32099;53.588;10.176;2023-10-31T00:54:14;51.83;49.34;56.97;;
46393;Laerm;32099;53.588;10.176;2023-10-31T00:56:39;59.31;49.50;76.67;;
46393;Laerm;32099;53.588;10.176;2023-10-31T00:59:05;58.70;48.88;76.37;;
46393;Laerm;32099;53.588;10.176;2023-10-31T01:01:31;55.66;48.06;72.75;;
46393;Laerm;32099;53.588;10.176;2023-10-31T01:03:56;50.55;47.90;61.67;;
46393;Laerm;32099;53.588;10.176;2023-10-31T01:06:22;49.92;47.41;56.17;;
46393;Laerm;32099;53.588;10.176;2023-10-31T01:08:51;56.30;48.45;73.00;;
46393;Laerm;32099;53.588;10.176;2023-10-31T01:11:17;51.21;48.42;61.44;;
46393;Laerm;32099;53.588;10.176;2023-10-31T01:13:42;50.81;48.04;64.46;;
46393;Laerm;32099;53.588;10.176;2023-10-31T01:16:08;50.57;48.18;62.92;;
46393;Laerm;32099;53.588;10.176;2023-10-31T01:18:34;49.58;46.64;62.12;;
46393;Laerm;32099;53.588;10.176;2023-10-31T01:21:03;48.65;45.80;67.00;;
46393;Laerm;32099;53.588;10.176;2023-10-31T01:23:29;47.61;45.33;55.81;;
46393;Laerm;32099;53.588;10.176;2023-10-31T01:25:57;48.33;45.65;57.56;;
46393;Laerm;32099;53.588;10.176;2023-10-31T01:28:23;47.11;44.79;57.75;;
46393;Laerm;32099;53.588;10.176;2023-10-31T01:30:49;46.94;45.33;57.64;;
46393;Laerm;32099;53.588;10.176;2023-10-31T01:33:15;46.74;44.99;60.29;;
46393;Laerm;32099;53.588;10.176;2023-10-31T01:35:41;46.66;45.09;55.65;;
46393;Laerm;32099;53.588;10.176;2023-10-31T01:38:07;47.52;45.04;62.09;;
46393;Laerm;32099;53.588;10.176;2023-10-31T01:40:33;47.96;45.98;57.12;;
46393;Laerm;32099;53.588;10.176;2023-10-31T01:43:02;47.96;45.77;58.94;;
46393;Laerm;32099;53.588;10.176;2023-10-31T01:45:28;49.45;45.78;62.52;;
46393;Laerm;32099;53.588;10.176;2023-10-31T01:47:54;54.82;45.61;72.34;;
46393;Laerm;32099;53.588;10.176;2023-10-31T01:50:20;46.88;45.11;54.09;;
46393;Laerm;32099;53.588;10.176;2023-10-31T01:52:46;47.57;44.86;66.38;;
46393;Laerm;32099;53.588;10.176;2023-10-31T01:55:12;47.31;44.78;66.33;;
46393;Laerm;32099;53.588;10.176;2023-10-31T01:57:39;47.83;45.07;58.03;;
46393;Laerm;32099;53.588;10.176;2023-10-31T02:00:09;47.07;44.55;56.64;;
46393;Laerm;32099;53.588;10.176;2023-10-31T02:02:41;48.05;45.39;62.17;;
46393;Laerm;32099;53.588;10.176;2023-10-31T02:05:07;49.08;45.78;58.85;;
46393;Laerm;32099;53.588;10.176;2023-10-31T02:07:34;48.80;45.64;56.85;;
46393;Laerm;32099;53.588;10.176;2023-10-31T02:10:00;48.15;46.01;52.77;;
46393;Laerm;32099;53.588;10.176;2023-10-31T02:12:32;50.65;46.29;58.00;;
46393;Laerm;32099;53.588;10.176;2023-10-31T02:14:58;48.89;45.95;67.96;;
46393;Laerm;32099;53.588;10.176;2023-10-31T02:17:27;49.87;45.84;58.16;;
46393;Laerm;32099;53.588;10.176;2023-10-31T02:19:53;49.21;46.60;56.99;;
46393;Laerm;32099;53.588;10.176;2023-10-31T02:22:21;48.88;46.18;58.88;;
46393;Laerm;32099;53.588;10.176;2023-10-31T02:24:47;48.62;45.65;57.01;;
46393;Laerm;32099;53.588;10.176;2023-10-31T02:27:13;48.87;46.42;59.03;;
46393;Laerm;32099;53.588;10.176;2023-10-31T02:29:39;48.98;46.27;62.69;;
46393;Laerm;32099;53.588;10.176;2023-10-31T02:32:05;48.44;45.93;62.51;;
46393;Laerm;32099;53.588;10.176;2023-10-31T02:34:31;48.19;45.13;62.31;;
46393;Laerm;32099;53.588;10.176;2023-10-31T02:36:57;47.77;44.32;63.37;;
46393;Laerm;32099;53.588;10.176;2023-10-31T02:39:28;47.56;44.90;64.48;;
46393;Laerm;32099;53.588;10.176;2023-10-31T02:41:54;48.19;44.59;65.89;;
46393;Laerm;32099;53.588;10.176;2023-10-31T02:44:19;48.06;44.56;64.84;;
46393;Laerm;32099;53.588;10.176;2023-10-31T02:46:46;47.69;45.19;54.72;;
46393;Laerm;32099;53.588;10.176;2023-10-31T02:49:12;46.70;44.41;52.14;;
46393;Laerm;32099;53.588;10.176;2023-10-31T02:51:39;47.88;45.50;58.28;;
46393;Laerm;32099;53.588;10.176;2023-10-31T02:54:06;47.91;45.48;53.75;;
46393;Laerm;32099;53.588;10.176;2023-10-31T02:56:34;49.34;45.50;68.13;;
46393;Laerm;32099;53.588;10.176;2023-10-31T02:59:00;48.54;45.55;58.61;;
46393;Laerm;32099;53.588;10.176;2023-10-31T03:01:31;48.86;45.23;59.27;;
46393;Laerm;32099;53.588;10.176;2023-10-31T03:03:57;55.66;45.63;72.30;;
46393;Laerm;32099;53.588;10.176;2023-10-31T03:06:23;59.41;46.01;79.25;;
46393;Laerm;32099;53.588;10.176;2023-10-31T03:08:49;47.86;45.56;55.23;;
46393;Laerm;32099;53.588;10.176;2023-10-31T03:11:21;48.34;45.29;54.48;;
46393;Laerm;32099;53.588;10.176;2023-10-31T03:13:50;48.85;45.66;57.47;;
46393;Laerm;32099;53.588;10.176;2023-10-31T03:16:16;47.76;45.00;58.76;;
46393;Laerm;32099;53.588;10.176;2023-10-31T03:18:42;48.65;45.51;57.97;;
46393;Laerm;32099;53.588;10.176;2023-10-31T03:21:08;57.78;45.62;77.13;;
46393;Laerm;32099;53.588;10.176;2023-10-31T03:23:34;48.51;45.64;63.19;;
46393;Laerm;32099;53.588;10.176;2023-10-31T03:26:00;48.14;44.91;57.96;;
46393;Laerm;32099;53.588;10.176;2023-10-31T03:28:26;47.59;44.65;59.82;;
46393;Laerm;32099;53.588;10.176;2023-10-31T03:30:55;48.35;44.53;64.66;;
46393;Laerm;32099;53.588;10.176;2023-10-31T03:33:20;48.53;44.20;61.73;;
46393;Laerm;32099;53.588;10.176;2023-10-31T03:35:46;49.10;44.50;59.28;;
46393;Laerm;32099;53.588;10.176;2023-10-31T03:38:13;47.53;45.13;57.85;;
46393;Laerm;32099;53.588;10.176;2023-10-31T03:40:38;47.48;45.01;54.34;;
46393;Laerm;32099;53.588;10.176;2023-10-31T03:43:05;48.70;45.36;64.51;;
46393;Laerm;32099;53.588;10.176;2023-10-31T03:45:31;48.82;45.11;63.42;;
46393;Laerm;32099;53.588;10.176;2023-10-31T03:48:01;47.56;44.82;53.38;;
46393;Laerm;32099;53.588;10.176;2023-10-31T03:50:27;46.54;44.32;57.50;;
46393;Laerm;32099;53.588;10.176;2023-10-31T03:52:52;47.14;44.40;62.22;;
46393;Laerm;32099;53.588;10.176;2023-10-31T03:55:19;47.43;45.00;55.77;;
46393;Laerm;32099;53.588;10.176;2023-10-31T03:57:44;48.91;45.22;68.18;;
46393;Laerm;32099;53.588;10.176;2023-10-31T04:00:11;50.03;46.30;65.39;;
46393;Laerm;32099;53.588;10.176;2023-10-31T04:02:40;51.39;47.26;59.75;;
46393;Laerm;32099;53.588;10.176;2023-10-31T04:05:10;50.37;47.32;62.14;;
46393;Laerm;32099;53.588;10.176;2023-10-31T04:07:36;50.66;46.76;64.42;;
46393;Laerm;32099;53.588;10.176;2023-10-31T04:10:01;50.21;46.98;62.32;;
46393;Laerm;32099;53.588;10.176;2023-10-31T04:12:27;50.78;47.37;60.57;;
46393;Laerm;32099;53.588;10.176;2023-10-31T04:14:53;51.33;47.81;62.08;;
46393;Laerm;32099;53.588;10.176;2023-10-31T04:17:21;52.04;48.15;65.91;;
46393;Laerm;32099;53.588;10.176;2023-10-31T04:19:47;50.98;46.92;61.28;;
46393;Laerm;32099;53.588;10.176;2023-10-31T04:22:15;49.47;46.32;64.42;;
46393;Laerm;32099;53.588;10.176;2023-10-31T04:24:41;49.62;45.90;68.72;;
46393;Laerm;32099;53.588;10.176;2023-10-31T04:27:07;49.33;46.41;55.98;;
46393;Laerm;32099;53.588;10.176;2023-10-31T04:29:33;50.46;46.05;66.11;;
46393;Laerm;32099;53.588;10.176;2023-10-31T04:31:59;50.37;46.43;61.12;;
46393;Laerm;32099;53.588;10.176;2023-10-31T04:34:24;49.05;45.28;61.32;;
46393;Laerm;32099;53.588;10.176;2023-10-31T04:36:50;48.40;45.68;59.39;;
46393;Laerm;32099;53.588;10.176;2023-10-31T04:39:19;48.93;45.30;66.18;;
46393;Laerm;32099;53.588;10.176;2023-10-31T04:41:45;48.59;44.83;61.64;;
46393;Laerm;32099;53.588;10.176;2023-10-31T04:44:10;49.76;44.95;61.65;;
46393;Laerm;32099;53.588;10.176;2023-10-31T04:46:37;48.63;44.72;61.71;;
46393;Laerm;32099;53.588;10.176;2023-10-31T04:49:03;68.21;45.63;98.83;;
46393;Laerm;32099;53.588;10.176;2023-10-31T04:51:33;48.13;45.01;60.30;;
46393;Laerm;32099;53.588;10.176;2023-10-31T04:53:58;47.91;45.37;56.52;;
46393;Laerm;32099;53.588;10.176;2023-10-31T04:56:27;47.89;45.51;65.51;;
46393;Laerm;32099;53.588;10.176;2023-10-31T04:58:53;48.87;44.91;61.69;;
46393;Laerm;32099;53.588;10.176;2023-10-31T05:01:20;50.82;45.54;63.96;;
46393;Laerm;32099;53.588;10.176;2023-10-31T05:03:46;49.92;45.59;60.16;;
46393;Laerm;32099;53.588;10.176;2023-10-31T05:06:11;50.00;45.60;56.86;;
46393;Laerm;32099;53.588;10.176;2023-10-31T05:08:37;49.60;45.38;60.27;;
46393;Laerm;32099;53.588;10.176;2023-10-31T05:11:03;50.75;45.93;73.90;;
46393;Laerm;32099;53.588;10.176;2023-10-31T05:13:32;51.86;47.31;62.95;;
46393;Laerm;32099;53.588;10.176;2023-10-31T05:15:58;52.50;48.28;64.66;;
46393;Laerm;32099;53.588;10.176;2023-10-31T05:18:24;53.48;48.21;64.54;;
46393;Laerm;32099;53.588;10.176;2023-10-31T05:20:50;55.72;46.32;65.87;;
46393;Laerm;32099;53.588;10.176;2023-10-31T05:23:15;49.49;45.48;62.88;;
46393;Laerm;32099;53.588;10.176;2023-10-31T05:25:41;57.01;46.11;75.11;;
46393;Laerm;32099;53.588;10.176;2023-10-31T05:28:07;55.22;45.05;69.61;;
46393;Laerm;32099;53.588;10.176;2023-10-31T05:30:35;53.86;45.30;70.65;;
46393;Laerm;32099;53.588;10.176;2023-10-31T05:33:01;47.83;45.22;58.32;;
46393;Laerm;32099;53.588;10.176;2023-10-31T05:35:27;53.07;45.24;74.11;;
46393;Laerm;32099;53.588;10.176;2023-10-31T05:37:52;50.30;44.92;61.34;;
46393;Laerm;32099;53.588;10.176;2023-10-31T05:40:18;52.96;44.90;61.28;;
46393;Laerm;32099;53.588;10.176;2023-10-31T05:42:44;49.04;45.04;56.10;;
46393;Laerm;32099;53.588;10.176;2023-10-31T05:45:11;49.49;44.86;63.08;;
46393;Laerm;32099;53.588;10.176;2023-10-31T05:47:39;53.25;45.43;70.38;;
46393;Laerm;32099;53.588;10.176;2023-10-31T05:50:08;49.11;45.25;55.48;;
46393;Laerm;32099;53.588;10.176;2023-10-31T05:52:34;49.02;45.22;61.41;;
46393;Laerm;32099;53.588;10.176;2023-10-31T05:55:00;48.03;44.93;55.66;;
46393;Laerm;32099;53.588;10.176;2023-10-31T05:57:26;50.42;44.64;68.85;;
46393;Laerm;32099;53.588;10.176;2023-10-31T05:59:51;55.35;44.74;73.25;;
46393;Laerm;32099;53.588;10.176;2023-10-31T06:02:17;56.90;45.51;75.41;;
46393;Laerm;32099;53.588;10.176;2023-10-31T06:04:48;53.78;44.32;72.45;;
46393;Laerm;32099;53.588;10.176;2023-10-31T06:07:14;50.27;45.16;65.86;;
46393;Laerm;32099;53.588;10.176;2023-10-31T06:09:39;47.96;45.22;56.82;;
46393;Laerm;32099;53.588;10.176;2023-10-31T06:12:05;52.15;46.38;65.57;;
46393;Laerm;32099;53.588;10.176;2023-10-31T06:14:31;56.68;47.48;74.90;;
46393;Laerm;32099;53.588;10.176;2023-10-31T06:16:57;50.55;46.77;61.94;;
46393;Laerm;32099;53.588;10.176;2023-10-31T06:19:22;56.10;47.44;66.15;;
46393;Laerm;32099;53.588;10.176;2023-10-31T06:21:51;58.92;54.53;68.49;;
46393;Laerm;32099;53.588;10.176;2023-10-31T06:24:17;55.36;52.71;65.37;;
46393;Laerm;32099;53.588;10.176;2023-10-31T06:26:42;54.75;51.61;65.69;;
46393;Laerm;32099;53.588;10.176;2023-10-31T06:29:08;54.81;51.30;68.87;;
46393;Laerm;32099;53.588;10.176;2023-10-31T06:31:34;53.38;49.58;68.69;;
46393;Laerm;32099;53.588;10.176;2023-10-31T06:33:59;55.55;49.61;69.69;;
46393;Laerm;32099;53.588;10.176;2023-10-31T06:36:25;61.81;52.57;75.34;;
46393;Laerm;32099;53.588;10.176;2023-10-31T06:38:54;56.56;53.03;66.18;;
46393;Laerm;32099;53.588;10.176;2023-10-31T06:41:20;58.75;56.37;64.62;;
46393;Laerm;32099;53.588;10.176;2023-10-31T06:43:46;61.26;55.69;77.04;;
46393;Laerm;32099;53.588;10.176;2023-10-31T06:46:12;59.82;56.47;75.89;;
46393;Laerm;32099;53.588;10.176;2023-10-31T06:48:37;64.20;57.61;73.48;;
46393;Laerm;32099;53.588;10.176;2023-10-31T06:51:04;64.38;59.60;74.38;;
46393;Laerm;32099;53.588;10.176;2023-10-31T06:53:30;65.63;60.32;71.18;;
46393;Laerm;32099;53.588;10.176;2023-10-31T06:55:58;61.23;58.46;68.58;;
46393;Laerm;32099;53.588;10.176;2023-10-31T06:58:24;59.95;57.37;69.09;;
46393;Laerm;32099;53.588;10.176;2023-10-31T07:00:50;59.71;56.76;73.03;;
46393;Laerm;32099;53.588;10.176;2023-10-31T07:03:15;59.40;53.83;72.27;;
46393;Laerm;32099;53.588;10.176;2023-10-31T07:05:42;56.53;52.99;67.46;;
46393;Laerm;32099;53.588;10.176;2023-10-31T07:08:09;57.92;51.89;67.44;;
46393;Laerm;32099;53.588;10.176;2023-10-31T07:10:37;63.33;59.24;69.11;;
46393;Laerm;32099;53.588;10.176;2023-10-31T07:13:09;61.19;55.98;72.45;;
46393;Laerm;32099;53.588;10.176;2023-10-31T07:15:35;59.65;56.47;66.97;;
46393;Laerm;32099;53.588;10.176;2023-10-31T07:18:00;60.33;57.67;68.21;;
46393;Laerm;32099;53.588;10.176;2023-10-31T07:20:26;62.83;58.16;74.20;;
46393;Laerm;32099;53.588;10.176;2023-10-31T07:22:53;60.24;56.64;68.46;;
46393;Laerm;32099;53.588;10.176;2023-10-31T07:25:19;64.90;58.67;69.78;;
46393;Laerm;32099;53.588;10.176;2023-10-31T07:27:51;65.72;59.57;77.00;;
46393;Laerm;32099;53.588;10.176;2023-10-31T07:30:19;61.98;55.51;74.49;;
46393;Laerm;32099;53.588;10.176;2023-10-31T07:32:45;57.71;53.81;66.03;;
46393;Laerm;32099;53.588;10.176;2023-10-31T07:35:11;56.45;52.00;66.43;;
46393;Laerm;32099;53.588;10.176;2023-10-31T07:37:36;53.87;50.97;63.56;;
46393;Laerm;32099;53.588;10.176;2023-10-31T07:40:02;54.24;50.59;63.10;;
46393;Laerm;32099;53.588;10.176;2023-10-31T07:42:28;53.39;49.79;61.83;;
46393;Laerm;32099;53.588;10.176;2023-10-31T07:44:54;53.10;49.75;66.12;;
46393;Laerm;32099;53.588;10.176;2023-10-31T07:47:22;57.13;49.88;73.18;;
46393;Laerm;32099;53.588;10.176;2023-10-31T07:49:49;55.36;50.66;65.05;;
46393;Laerm;32099;53.588;10.176;2023-10-31T07:52:15;55.67;50.75;64.68;;
46393;Laerm;32099;53.588;10.176;2023-10-31T07:54:40;59.18;50.19;73.30;;
46393;Laerm;32099;53.588;10.176;2023-10-31T07:57:06;53.33;49.00;62.21;;
46393;Laerm;32099;53.588;10.176;2023-10-31T07:59:33;55.22;49.10;62.72;;
46393;Laerm;32099;53.588;10.176;2023-10-31T08:01:58;52.42;48.54;60.15;;
46393;Laerm;32099;53.588;10.176;2023-10-31T08:04:27;52.86;47.45;65.19;;
46393;Laerm;32099;53.588;10.176;2023-10-31T08:06:52;52.74;47.48;69.45;;
46393;Laerm;32099;53.588;10.176;2023-10-31T08:09:18;57.54;47.41;66.95;;
46393;Laerm;32099;53.588;10.176;2023-10-31T08:11:44;58.28;48.71;73.65;;
46393;Laerm;32099;53.588;10.176;2023-10-31T08:14:10;62.08;49.83;75.56;;
46393;Laerm;32099;53.588;10.176;2023-10-31T08:16:36;59.18;48.09;76.10;;
46393;Laerm;32099;53.588;10.176;2023-10-31T08:19:02;54.68;49.09;62.92;;
46393;Laerm;32099;53.588;10.176;2023-10-31T08:21:30;52.52;48.75;58.64;;
46393;Laerm;32099;53.588;10.176;2023-10-31T08:23:56;57.44;48.29;74.25;;
46393;Laerm;32099;53.588;10.176;2023-10-31T08:26:21;55.45;48.04;70.40;;
46393;Laerm;32099;53.588;10.176;2023-10-31T08:28:47;51.66;47.19;63.08;;
46393;Laerm;32099;53.588;10.176;2023-10-31T08:31:14;51.64;47.92;69.24;;
46393;Laerm;32099;53.588;10.176;2023-10-31T08:33:40;56.89;47.70;72.54;;
46393;Laerm;32099;53.588;10.176;2023-10-31T08:36:07;56.13;48.71;70.43;;
46393;Laerm;32099;53.588;10.176;2023-10-31T08:38:37;57.42;47.82;76.32;;
46393;Laerm;32099;53.588;10.176;2023-10-31T08:41:05;51.09;46.83;64.48;;
46393;Laerm;32099;53.588;10.176;2023-10-31T08:43:31;60.03;47.70;75.29;;
46393;Laerm;32099;53.588;10.176;2023-10-31T08:45:57;56.04;46.55;75.15;;
46393;Laerm;32099;53.588;10.176;2023-10-31T08:48:23;55.85;47.42;72.61;;
46393;Laerm;32099;53.588;10.176;2023-10-31T08:50:48;51.82;47.01;66.66;;
46393;Laerm;32099;53.588;10.176;2023-10-31T08:53:15;51.91;46.75;61.43;;
46393;Laerm;32099;53.588;10.176;2023-10-31T08:55:47;56.63;47.80;73.34;;
46393;Laerm;32099;53.588;10.176;2023-10-31T08:58:14;60.04;47.16;77.78;;
46393;Laerm;32099;53.588;10.176;2023-10-31T09:00:40;58.05;46.50;74.96;;
46393;Laerm;32099;53.588;10.176;2023-10-31T09:03:07;49.02;46.17;63.07;;
46393;Laerm;32099;53.588;10.176;2023-10-31T09:05:33;58.14;46.03;77.31;;
46393;Laerm;32099;53.588;10.176;2023-10-31T09:07:58;61.03;45.89;77.53;;
46393;Laerm;32099;53.588;10.176;2023-10-31T09:10:24;62.84;46.77;77.22;;
46393;Laerm;32099;53.588;10.176;2023-10-31T09:12:53;55.39;45.92;72.96;;
46393;Laerm;32099;53.588;10.176;2023-10-31T09:15:19;50.68;45.71;64.67;;
46393;Laerm;32099;53.588;10.176;2023-10-31T09:17:44;57.08;45.49;74.81;;
46393;Laerm;32099;53.588;10.176;2023-10-31T09:20:10;49.67;46.40;59.01;;
46393;Laerm;32099;53.588;10.176;2023-10-31T09:22:37;49.87;45.93;62.55;;
46393;Laerm;32099;53.588;10.176;2023-10-31T09:25:04;55.88;46.71;72.82;;
46393;Laerm;32099;53.588;10.176;2023-10-31T09:27:30;49.72;46.76;60.80;;
46393;Laerm;32099;53.588;10.176;2023-10-31T09:29:59;51.68;47.42;62.10;;
46393;Laerm;32099;53.588;10.176;2023-10-31T09:32:24;49.53;46.51;64.16;;
46393;Laerm;32099;53.588;10.176;2023-10-31T09:34:50;54.10;46.93;68.20;;
46393;Laerm;32099;53.588;10.176;2023-10-31T09:37:16;57.36;47.30;73.94;;
46393;Laerm;32099;53.588;10.176;2023-10-31T09:39:42;55.77;48.52;70.17;;
46393;Laerm;32099;53.588;10.176;2023-10-31T09:42:08;60.04;48.96;77.38;;
46393;Laerm;32099;53.588;10.176;2023-10-31T09:44:34;65.81;55.36;74.95;;
46393;Laerm;32099;53.588;10.176;2023-10-31T09:47:05;69.88;66.14;78.83;;
46393;Laerm;32099;53.588;10.176;2023-10-31T09:49:31;70.77;66.58;79.57;;
46393;Laerm;32099;53.588;10.176;2023-10-31T09:52:00;69.00;65.50;79.13;;
46393;Laerm;32099;53.588;10.176;2023-10-31T09:54:28;67.22;62.71;80.72;;
46393;Laerm;32099;53.588;10.176;2023-10-31T09:56:55;69.37;62.20;79.33;;
46393;Laerm;32099;53.588;10.176;2023-10-31T09:59:21;65.07;59.12;78.92;;
46393;Laerm;32099;53.588;10.176;2023-10-31T10:01:46;62.88;59.56;74.78;;
46393;Laerm;32099;53.588;10.176;2023-10-31T10:04:15;65.32;58.35;74.26;;
46393;Laerm;32099;53.588;10.176;2023-10-31T10:06:50;67.69;60.90;77.58;;
46393;Laerm;32099;53.588;10.176;2023-10-31T10:09:15;65.34;60.46;73.18;;
46393;Laerm;32099;53.588;10.176;2023-10-31T10:11:41;67.43;62.88;76.53;;
46393;Laerm;32099;53.588;10.176;2023-10-31T10:14:11;64.35;60.17;72.06;;
46393;Laerm;32099;53.588;10.176;2023-10-31T10:16:39;62.80;59.70;66.10;;
46393;Laerm;32099;53.588;10.176;2023-10-31T10:19:27;65.41;61.63;73.80;;
46393;Laerm;32099;53.588;10.176;2023-10-31T10:21:58;65.60;62.30;75.29;;
46393;Laerm;32099;53.588;10.176;2023-10-31T10:24:25;63.21;58.39;69.34;;
46393;Laerm;32099;53.588;10.176;2023-10-31T10:26:52;64.69;59.77;76.92;;
46393;Laerm;32099;53.588;10.176;2023-10-31T10:29:19;66.21;62.04;76.94;;
46393;Laerm;32099;53.588;10.176;2023-10-31T10:31:47;65.33;61.08;77.04;;
46393;Laerm;32099;53.588;10.176;2023-10-31T10:34:14;67.28;60.83;81.14;;
46393;Laerm;32099;53.588;10.176;2023-10-31T10:36:48;63.82;56.79;79.90;;
46393;Laerm;32099;53.588;10.176;2023-10-31T10:39:19;64.37;56.31;79.26;;
46393;Laerm;32099;53.588;10.176;2023-10-31T10:41:52;61.84;54.91;74.33;;
46393;Laerm;32099;53.588;10.176;2023-10-31T10:44:19;59.81;56.36;67.58;;
46393;Laerm;32099;53.588;10.176;2023-10-31T10:46:54;62.80;55.02;78.07;;
46393;Laerm;32099;53.588;10.176;2023-10-31T10:49:23;64.67;55.88;77.85;;
46393;Laerm;32099;53.588;10.176;2023-10-31T10:51:53;66.39;54.79;79.25;;
46393;Laerm;32099;53.588;10.176;2023-10-31T10:54:29;63.41;53.04;81.42;;
46393;Laerm;32099;53.588;10.176;2023-10-31T10:57:03;58.46;53.01;69.44;;
46393;Laerm;32099;53.588;10.176;2023-10-31T10:59:39;55.98;50.65;65.55;;
46393;Laerm;32099;53.588;10.176;2023-10-31T11:02:06;63.16;51.84;78.63;;
46393;Laerm;32099;53.588;10.176;2023-10-31T11:04:34;59.18;51.29;72.04;;
46393;Laerm;32099;53.588;10.176;2023-10-31T11:07:04;64.40;52.84;78.88;;
46393;Laerm;32099;53.588;10.176;2023-10-31T11:09:31;62.92;53.39;78.22;;
46393;Laerm;32099;53.588;10.176;2023-10-31T11:11:57;61.23;56.63;72.14;;
46393;Laerm;32099;53.588;10.176;2023-10-31T11:14:25;56.60;52.74;67.73;;
46393;Laerm;32099;53.588;10.176;2023-10-31T11:16:56;65.53;52.56;81.97;;
46393;Laerm;32099;53.588;10.176;2023-10-31T11:19:24;59.88;53.40;76.35;;
46393;Laerm;32099;53.588;10.176;2023-10-31T11:21:58;58.86;54.20;67.61;;
46393;Laerm;32099;53.588;10.176;2023-10-31T11:24:27;56.76;53.23;63.33;;
46393;Laerm;32099;53.588;10.176;2023-10-31T11:26:58;59.74;53.99;73.18;;
46393;Laerm;32099;53.588;10.176;2023-10-31T11:29:24;57.17;54.13;64.50;;
46393;Laerm;32099;53.588;10.176;2023-10-31T11:31:50;58.88;53.31;72.21;;
46393;Laerm;32099;53.588;10.176;2023-10-31T11:34:17;62.21;51.72;76.90;;
46393;Laerm;32099;53.588;10.176;2023-10-31T11:36:44;56.61;52.66;65.12;;
46393;Laerm;32099;53.588;10.176;2023-10-31T11:39:12;59.35;53.53;74.52;;
46393;Laerm;32099;53.588;10.176;2023-10-31T11:41:40;63.05;52.86;74.84;;
46393;Laerm;32099;53.588;10.176;2023-10-31T11:44:11;61.17;54.09;76.39;;
46393;Laerm;32099;53.588;10.176;2023-10-31T11:46:37;55.21;52.76;65.13;;
46393;Laerm;32099;53.588;10.176;2023-10-31T11:49:03;64.61;53.22;79.40;;
46393;Laerm;32099;53.588;10.176;2023-10-31T11:51:28;56.64;51.47;69.95;;
46393;Laerm;32099;53.588;10.176;2023-10-31T11:53:54;55.14;51.71;63.60;;
46393;Laerm;32099;53.588;10.176;2023-10-31T11:56:21;56.52;53.32;69.20;;
46393;Laerm;32099;53.588;10.176;2023-10-31T11:58:58;59.80;53.76;76.17;;
46393;Laerm;32099;53.588;10.176;2023-10-31T12:01:24;61.29;53.78;79.88;;
46393;Laerm;32099;53.588;10.176;2023-10-31T12:03:49;57.56;54.27;67.95;;
46393;Laerm;32099;53.588;10.176;2023-10-31T12:06:15;60.74;52.99;75.91;;
46393;Laerm;32099;53.588;10.176;2023-10-31T12:08:43;59.92;50.64;77.96;;
46393;Laerm;32099;53.588;10.176;2023-10-31T12:11:10;53.26;50.54;65.67;;
46393;Laerm;32099;53.588;10.176;2023-10-31T12:13:38;65.50;50.82;88.99;;
46393;Laerm;32099;53.588;10.176;2023-10-31T12:16:08;62.56;51.05;81.52;;
46393;Laerm;32099;53.588;10.176;2023-10-31T12:18:35;62.94;51.31;77.61;;
46393;Laerm;32099;53.588;10.176;2023-10-31T12:21:01;52.97;49.45;64.41;;
46393;Laerm;32099;53.588;10.176;2023-10-31T12:23:27;55.51;49.51;67.83;;
46393;Laerm;32099;53.588;10.176;2023-10-31T12:25:53;53.53;47.06;71.66;;
46393;Laerm;32099;53.588;10.176;2023-10-31T12:28:20;60.76;46.53;78.27;;
46393;Laerm;32099;53.588;10.176;2023-10-31T12:30:46;68.39;47.09;97.00;;
46393;Laerm;32099;53.588;10.176;2023-10-31T12:33:15;69.73;47.94;91.81;;
46393;Laerm;32099;53.588;10.176;2023-10-31T12:35:42;67.16;46.66;85.28;;
46393;Laerm;32099;53.588;10.176;2023-10-31T12:38:10;62.68;47.59;81.28;;
46393;Laerm;32099;53.588;10.176;2023-10-31T12:40:36;63.92;48.09;83.84;;
46393;Laerm;32099;53.588;10.176;2023-10-31T12:43:03;59.74;47.76;79.86;;
46393;Laerm;32099;53.588;10.176;2023-10-31T12:45:29;51.35;45.84;65.39;;
46393;Laerm;32099;53.588;10.176;2023-10-31T12:48:01;63.29;47.59;79.81;;
46393;Laerm;32099;53.588;10.176;2023-10-31T12:50:31;61.18;47.42;80.48;;
46393;Laerm;32099;53.588;10.176;2023-10-31T12:52:58;65.53;48.68;87.02;;
46393;Laerm;32099;53.588;10.176;2023-10-31T12:55:26;54.87;46.74;76.11;;
46393;Laerm;32099;53.588;10.176;2023-10-31T12:57:56;54.87;48.81;66.65;;
46393;Laerm;32099;53.588;10.176;2023-10-31T13:00:30;66.92;48.72;83.64;;
46393;Laerm;32099;53.588;10.176;2023-10-31T13:03:00;51.28;47.02;58.04;;
46393;Laerm;32099;53.588;10.176;2023-10-31T13:05:30;62.82;46.80;79.08;;
46393;Laerm;32099;53.588;10.176;2023-10-31T13:07:58;64.35;45.96;83.62;;
46393;Laerm;32099;53.588;10.176;2023-10-31T13:10:25;62.13;46.76;78.19;;
46393;Laerm;32099;53.588;10.176;2023-10-31T13:12:53;62.32;47.59;77.01;;
46393;Laerm;32099;53.588;10.176;2023-10-31T13:15:22;62.87;47.52;78.01;;
46393;Laerm;32099;53.588;10.176;2023-10-31T13:17:49;59.06;46.22;77.62;;
46393;Laerm;32099;53.588;10.176;2023-10-31T13:20:18;60.89;46.99;82.47;;
46393;Laerm;32099;53.588;10.176;2023-10-31T13:22:47;59.33;47.18;77.84;;
46393;Laerm;32099;53.588;10.176;2023-10-31T13:25:14;58.21;47.25;75.11;;
46393;Laerm;32099;53.588;10.176;2023-10-31T13:27:41;63.26;46.15;80.43;;
46393;Laerm;32099;53.588;10.176;2023-10-31T13:30:07;57.32;45.83;75.01;;